createdAt,value
2018-11-29T00:00:44.521Z,43.80
2018-11-29T00:01:44.486Z,44.20
2018-11-29T00:02:44.453Z,44.70
2018-11-29T00:03:44.426Z,43.10
2018-11-29T00:04:44.385Z,41.50
2018-11-29T00:05:44.352Z,44.60
2018-11-29T00:06:44.321Z,41.30
2018-11-29T00:07:44.283Z,42.50
2018-11-29T00:08:44.250Z,41.80
2018-11-29T00:09:44.219Z,44.70
2018-11-29T00:10:44.183Z,41.90
2018-11-29T00:11:44.148Z,43.80
2018-11-29T00:12:44.113Z,40.00
2018-11-29T00:13:44.083Z,41.30
2018-11-29T00:14:44.045Z,41.60
2018-11-29T00:15:44.012Z,47.80
2018-11-29T00:16:43.978Z,46.80
2018-11-29T00:17:43.944Z,48.10
2018-11-29T00:18:43.911Z,45.40
2018-11-29T00:19:43.877Z,46.80
2018-11-29T00:20:43.849Z,47.50
2018-11-29T00:21:43.812Z,42.40
2018-11-29T00:22:43.775Z,45.10
2018-11-29T00:23:43.739Z,46.20
2018-11-29T00:24:43.706Z,53.10
2018-11-29T00:25:43.672Z,52.20
2018-11-29T00:26:43.639Z,52.00
2018-11-29T00:27:43.604Z,50.00
2018-11-29T00:28:43.579Z,50.00
2018-11-29T00:29:43.538Z,52.50
2018-11-29T00:30:43.505Z,52.20
2018-11-29T00:31:43.469Z,51.50
2018-11-29T00:32:43.433Z,50.50
2018-11-29T00:33:43.399Z,54.30
2018-11-29T00:34:43.365Z,50.40
2018-11-29T00:35:43.331Z,49.10
2018-11-29T00:36:43.303Z,47.40
2018-11-29T00:37:43.263Z,52.40
2018-11-29T00:38:43.228Z,51.60
2018-11-29T00:39:43.194Z,52.40
2018-11-29T00:40:43.164Z,52.40
2018-11-29T00:41:43.130Z,52.20
2018-11-29T00:42:43.092Z,50.50
2018-11-29T00:43:43.055Z,52.80
2018-11-29T00:44:43.021Z,51.40
2018-11-29T00:45:42.990Z,49.90
2018-11-29T00:46:42.952Z,52.30
2018-11-29T00:47:42.921Z,50.30
2018-11-29T00:48:42.887Z,53.20
2018-11-29T00:49:42.850Z,52.80
2018-11-29T00:50:42.814Z,52.20
2018-11-29T00:51:42.780Z,50.70
2018-11-29T00:52:42.749Z,53.60
2018-11-29T00:53:42.711Z,53.80
2018-11-29T00:54:42.676Z,48.10
2018-11-29T00:55:42.644Z,53.50
2018-11-29T00:56:42.607Z,48.70
2018-11-29T00:57:42.574Z,55.60
2018-11-29T00:58:42.539Z,49.10
2018-11-29T00:59:42.506Z,53.20
2018-11-29T01:00:42.472Z,53.20
2018-11-29T01:01:42.439Z,48.00
2018-11-29T01:02:42.400Z,52.20
2018-11-29T01:03:42.368Z,49.50
2018-11-29T01:04:42.350Z,49.00
2018-11-29T01:05:42.299Z,52.70
2018-11-29T01:06:42.290Z,52.70
2018-11-29T01:07:42.234Z,52.70
2018-11-29T01:08:42.345Z,52.80
2018-11-29T01:09:42.160Z,50.10
2018-11-29T01:10:42.132Z,49.80
2018-11-29T01:11:42.095Z,53.40
2018-11-29T01:12:42.062Z,53.70
2018-11-29T01:13:42.025Z,51.10
2018-11-29T01:14:41.997Z,54.80
2018-11-29T01:15:41.955Z,54.90
2018-11-29T01:16:41.923Z,54.40
2018-11-29T01:17:41.885Z,52.30
2018-11-29T01:18:41.851Z,49.60
2018-11-29T01:19:41.966Z,53.00
2018-11-29T01:20:41.781Z,52.40
2018-11-29T01:21:41.749Z,53.20
2018-11-29T01:22:41.721Z,49.70
2018-11-29T01:23:41.678Z,50.70
2018-11-29T01:24:41.645Z,51.90
2018-11-29T01:25:41.615Z,54.10
2018-11-29T01:26:41.575Z,56.40
2018-11-29T01:27:41.547Z,54.20
2018-11-29T01:28:41.509Z,52.50
2018-11-29T01:29:41.474Z,48.90
2018-11-29T01:30:41.440Z,51.40
2018-11-29T01:31:41.404Z,50.50
2018-11-29T01:32:41.371Z,53.10
2018-11-29T01:33:41.336Z,56.30
2018-11-29T01:34:41.302Z,52.60
2018-11-29T01:35:41.269Z,50.50
2018-11-29T01:36:41.233Z,54.30
2018-11-29T01:37:41.252Z,58.80
2018-11-29T01:38:41.165Z,53.10
2018-11-29T01:39:41.134Z,54.10
2018-11-29T01:40:41.099Z,54.80
2018-11-29T01:41:41.063Z,51.00
2018-11-29T01:42:41.031Z,53.10
2018-11-29T01:43:40.997Z,51.60
2018-11-29T01:44:40.962Z,55.00
2018-11-29T01:45:40.925Z,53.70
2018-11-29T01:46:40.891Z,49.70
2018-11-29T01:47:40.859Z,50.70
2018-11-29T01:48:40.977Z,51.50
2018-11-29T01:49:40.791Z,51.10
2018-11-29T01:50:40.755Z,50.90
2018-11-29T01:51:40.720Z,50.70
2018-11-29T01:52:40.686Z,54.10
2018-11-29T01:53:40.652Z,51.40
2018-11-29T01:54:40.619Z,50.60
2018-11-29T01:55:40.586Z,53.70
2018-11-29T01:56:40.550Z,52.10
2018-11-29T01:57:40.517Z,51.70
2018-11-29T01:58:40.482Z,50.90
2018-11-29T01:59:40.447Z,54.50
2018-11-29T02:00:40.415Z,52.00
2018-11-29T02:01:40.382Z,51.20
2018-11-29T02:02:40.345Z,55.30
2018-11-29T02:03:40.312Z,52.10
2018-11-29T02:04:40.277Z,49.10
2018-11-29T02:05:40.245Z,52.80
2018-11-29T02:06:40.210Z,52.30
2018-11-29T02:07:40.174Z,53.10
2018-11-29T02:08:40.142Z,51.20
2018-11-29T02:09:40.107Z,52.10
2018-11-29T02:10:40.075Z,51.20
2018-11-29T02:11:40.040Z,55.90
2018-11-29T02:12:40.005Z,49.60
2018-11-29T02:13:39.982Z,52.80
2018-11-29T02:14:39.937Z,52.60
2018-11-29T02:15:39.902Z,57.00
2018-11-29T02:16:39.876Z,51.40
2018-11-29T02:17:39.834Z,51.60
2018-11-29T02:18:39.800Z,50.90
2018-11-29T02:19:39.767Z,49.00
2018-11-29T02:20:39.735Z,48.30
2018-11-29T02:21:39.700Z,56.00
2018-11-29T02:22:39.669Z,51.60
2018-11-29T02:23:39.631Z,56.40
2018-11-29T02:24:39.597Z,52.40
2018-11-29T02:25:39.564Z,53.30
2018-11-29T02:26:39.530Z,50.20
2018-11-29T02:27:39.495Z,55.60
2018-11-29T02:28:39.460Z,53.60
2018-11-29T02:29:39.426Z,52.80
2018-11-29T02:30:39.392Z,45.90
2018-11-29T02:31:39.361Z,50.40
2018-11-29T02:32:39.325Z,49.80
2018-11-29T02:33:39.292Z,49.00
2018-11-29T02:34:39.255Z,51.70
2018-11-29T02:35:39.224Z,50.10
2018-11-29T02:36:39.195Z,48.40
2018-11-29T02:37:39.156Z,52.20
2018-11-29T02:38:39.121Z,49.00
2018-11-29T02:39:39.086Z,51.70
2018-11-29T02:40:39.053Z,52.40
2018-11-29T02:41:39.021Z,48.20
2018-11-29T02:42:38.983Z,51.30
2018-11-29T02:43:38.955Z,49.70
2018-11-29T02:44:38.922Z,51.80
2018-11-29T02:45:38.885Z,48.70
2018-11-29T02:46:38.852Z,47.40
2018-11-29T02:47:38.815Z,50.20
2018-11-29T02:48:38.825Z,57.80
2018-11-29T02:49:38.746Z,49.10
2018-11-29T02:50:38.718Z,51.10
2018-11-29T02:51:38.685Z,54.30
2018-11-29T02:52:38.647Z,48.50
2018-11-29T02:53:38.612Z,48.90
2018-11-29T02:54:38.576Z,51.00
2018-11-29T02:55:38.550Z,51.10
2018-11-29T02:56:38.511Z,50.80
2018-11-29T02:57:38.478Z,51.10
2018-11-29T02:58:38.443Z,48.80
2018-11-29T02:59:38.408Z,56.50
2018-11-29T03:00:38.374Z,49.30
2018-11-29T03:01:38.343Z,50.10
2018-11-29T03:02:38.306Z,53.50
2018-11-29T03:03:38.274Z,51.90
2018-11-29T03:04:38.239Z,48.70
2018-11-29T03:05:38.207Z,48.70
2018-11-29T03:06:38.172Z,49.20
2018-11-29T03:07:38.136Z,50.10
2018-11-29T03:08:38.105Z,49.10
2018-11-29T03:09:38.070Z,47.70
2018-11-29T03:10:38.043Z,50.60
2018-11-29T03:11:38.005Z,52.20
2018-11-29T03:12:37.973Z,51.40
2018-11-29T03:13:37.966Z,50.70
2018-11-29T03:14:37.906Z,50.50
2018-11-29T03:15:37.867Z,55.00
2018-11-29T03:16:37.835Z,53.60
2018-11-29T03:17:37.800Z,53.80
2018-11-29T03:18:37.794Z,52.90
2018-11-29T03:19:37.737Z,48.80
2018-11-29T03:20:37.700Z,50.50
2018-11-29T03:21:37.665Z,51.80
2018-11-29T03:22:37.630Z,56.00
2018-11-29T03:23:37.597Z,51.30
2018-11-29T03:24:37.566Z,56.30
2018-11-29T03:25:37.527Z,59.50
2018-11-29T03:26:37.494Z,53.30
2018-11-29T03:27:37.465Z,52.50
2018-11-29T03:28:37.426Z,54.30
2018-11-29T03:29:37.396Z,53.10
2018-11-29T03:30:37.372Z,52.60
2018-11-29T03:31:37.332Z,52.50
2018-11-29T03:32:37.291Z,53.20
2018-11-29T03:33:37.408Z,55.10
2018-11-29T03:34:37.222Z,54.00
2018-11-29T03:35:37.187Z,55.50
2018-11-29T03:36:37.154Z,54.70
2018-11-29T03:37:37.120Z,52.00
2018-11-29T03:38:37.095Z,57.20
2018-11-29T03:39:37.202Z,53.00
2018-11-29T03:40:37.017Z,56.30
2018-11-29T03:41:36.983Z,50.50
2018-11-29T03:42:36.948Z,53.10
2018-11-29T03:43:36.915Z,51.50
2018-11-29T03:44:36.880Z,51.30
2018-11-29T03:45:36.847Z,53.40
2018-11-29T03:46:36.812Z,49.90
2018-11-29T03:47:36.782Z,52.30
2018-11-29T03:48:36.746Z,51.30
2018-11-29T03:49:36.711Z,53.10
2018-11-29T03:50:36.676Z,50.40
2018-11-29T03:51:36.643Z,52.30
2018-11-29T03:52:36.614Z,50.60
2018-11-29T03:53:36.574Z,51.80
2018-11-29T03:54:36.545Z,54.20
2018-11-29T03:55:36.508Z,49.20
2018-11-29T03:56:36.473Z,48.50
2018-11-29T03:57:36.438Z,54.30
2018-11-29T03:58:36.414Z,52.00
2018-11-29T03:59:36.371Z,53.50
2018-11-29T04:00:36.339Z,54.10
2018-11-29T04:01:36.304Z,50.20
2018-11-29T04:02:36.271Z,52.10
2018-11-29T04:03:36.236Z,52.40
2018-11-29T04:04:36.205Z,47.10
2018-11-29T04:05:36.169Z,48.60
2018-11-29T04:06:36.134Z,46.70
2018-11-29T04:07:36.104Z,51.90
2018-11-29T04:08:36.070Z,50.20
2018-11-29T04:09:36.036Z,50.60
2018-11-29T04:10:35.998Z,49.60
2018-11-29T04:11:35.965Z,51.10
2018-11-29T04:12:35.932Z,46.50
2018-11-29T04:13:35.899Z,53.80
2018-11-29T04:14:35.874Z,51.40
2018-11-29T04:15:35.831Z,56.10
2018-11-29T04:16:35.798Z,56.70
2018-11-29T04:17:40.548Z,61.30
2018-11-29T04:18:35.740Z,59.30
2018-11-29T04:19:35.695Z,57.60
2018-11-29T04:20:35.660Z,56.00
2018-11-29T04:21:35.626Z,58.70
2018-11-29T04:22:35.597Z,55.50
2018-11-29T04:23:35.558Z,61.90
2018-11-29T04:24:35.528Z,60.50
2018-11-29T04:25:35.494Z,62.90
2018-11-29T04:26:35.455Z,62.60
2018-11-29T04:27:35.425Z,64.50
2018-11-29T04:28:35.387Z,67.70
2018-11-29T04:29:35.355Z,63.00
2018-11-29T04:30:35.320Z,68.50
2018-11-29T04:31:35.285Z,66.80
2018-11-29T04:32:35.552Z,72.70
2018-11-29T04:33:35.216Z,67.30
2018-11-29T04:34:35.186Z,68.40
2018-11-29T04:35:35.148Z,74.60
2018-11-29T04:36:35.116Z,72.20
2018-11-29T04:37:35.083Z,71.90
2018-11-29T04:38:35.045Z,74.80
2018-11-29T04:39:35.017Z,72.20
2018-11-29T04:40:35.021Z,72.20
2018-11-29T04:41:34.941Z,72.70
2018-11-29T04:42:34.909Z,71.70
2018-11-29T04:43:34.878Z,66.50
2018-11-29T04:44:34.837Z,79.30
2018-11-29T04:45:34.805Z,74.00
2018-11-29T04:46:34.769Z,74.90
2018-11-29T04:47:34.741Z,78.30
2018-11-29T04:48:34.704Z,77.60
2018-11-29T04:49:34.665Z,88.00
2018-11-29T04:50:34.630Z,80.60
2018-11-29T04:51:34.608Z,80.20
2018-11-29T04:52:34.564Z,81.80
2018-11-29T04:53:34.531Z,87.50
2018-11-29T04:54:34.498Z,83.70
2018-11-29T04:55:34.609Z,91.70
2018-11-29T04:56:34.424Z,85.60
2018-11-29T04:57:34.390Z,83.80
2018-11-29T04:58:34.356Z,82.50
2018-11-29T04:59:34.318Z,89.80
2018-11-29T05:00:34.285Z,81.60
2018-11-29T05:01:34.260Z,87.10
2018-11-29T05:02:34.214Z,88.10
2018-11-29T05:03:34.180Z,86.20
2018-11-29T05:04:34.145Z,90.30
2018-11-29T05:05:34.122Z,89.50
2018-11-29T05:06:34.076Z,90.50
2018-11-29T05:07:34.043Z,91.60
2018-11-29T05:08:34.009Z,88.40
2018-11-29T05:09:33.972Z,88.40
2018-11-29T05:10:33.937Z,85.60
2018-11-29T05:11:33.904Z,82.50
2018-11-29T05:12:33.869Z,82.70
2018-11-29T05:13:33.835Z,87.00
2018-11-29T05:14:33.798Z,79.60
2018-11-29T05:15:33.766Z,90.50
2018-11-29T05:16:33.731Z,82.70
2018-11-29T05:17:33.694Z,88.00
2018-11-29T05:18:33.659Z,92.80
2018-11-29T05:19:33.625Z,96.60
2018-11-29T05:20:33.590Z,90.30
2018-11-29T05:21:33.561Z,96.60
2018-11-29T05:22:33.526Z,92.20
2018-11-29T05:23:33.486Z,97.90
2018-11-29T05:24:33.462Z,95.50
2018-11-29T05:25:33.417Z,100.00
2018-11-29T05:26:33.383Z,93.60
2018-11-29T05:27:33.349Z,96.90
2018-11-29T05:28:33.314Z,97.10
2018-11-29T05:29:33.279Z,95.20
2018-11-29T05:30:33.246Z,98.90
2018-11-29T05:31:33.209Z,94.60
2018-11-29T05:32:33.177Z,104.30
2018-11-29T05:33:33.143Z,101.00
2018-11-29T05:34:33.105Z,103.60
2018-11-29T05:35:33.099Z,100.80
2018-11-29T05:36:33.035Z,106.40
2018-11-29T05:37:33.003Z,118.30
2018-11-29T05:38:32.968Z,113.20
2018-11-29T05:39:32.935Z,99.50
2018-11-29T05:40:32.900Z,102.60
2018-11-29T05:41:32.864Z,109.40
2018-11-29T05:42:32.828Z,104.90
2018-11-29T05:43:32.796Z,104.50
2018-11-29T05:44:32.762Z,111.70
2018-11-29T05:45:32.727Z,118.30
2018-11-29T05:46:32.693Z,112.20
2018-11-29T05:47:32.656Z,120.30
2018-11-29T05:48:32.624Z,120.40
2018-11-29T05:49:32.589Z,122.60
2018-11-29T05:50:32.561Z,126.50
2018-11-29T05:51:32.521Z,125.40
2018-11-29T05:52:32.484Z,127.60
2018-11-29T05:53:32.460Z,115.20
2018-11-29T05:54:32.420Z,109.40
2018-11-29T05:55:32.383Z,119.50
2018-11-29T05:56:32.350Z,119.90
2018-11-29T05:57:32.315Z,130.90
2018-11-29T05:58:32.280Z,123.50
2018-11-29T05:59:32.245Z,111.50
2018-11-29T06:00:32.210Z,118.00
2018-11-29T06:01:32.175Z,118.60
2018-11-29T06:02:32.140Z,117.20
2018-11-29T06:03:32.108Z,121.10
2018-11-29T06:04:32.074Z,123.70
2018-11-29T06:05:32.043Z,126.30
2018-11-29T06:06:32.009Z,126.90
2018-11-29T06:07:31.969Z,128.20
2018-11-29T06:08:31.936Z,121.90
2018-11-29T06:09:31.907Z,124.30
2018-11-29T06:10:31.867Z,116.90
2018-11-29T06:11:31.831Z,123.40
2018-11-29T06:12:31.800Z,125.30
2018-11-29T06:13:31.766Z,135.00
2018-11-29T06:14:31.732Z,131.00
2018-11-29T06:15:31.694Z,129.10
2018-11-29T06:16:31.662Z,132.20
2018-11-29T06:17:31.628Z,126.10
2018-11-29T06:18:31.591Z,127.50
2018-11-29T06:19:31.597Z,131.10
2018-11-29T06:20:31.529Z,139.00
2018-11-29T06:21:31.490Z,138.50
2018-11-29T06:22:31.456Z,135.50
2018-11-29T06:23:31.419Z,138.80
2018-11-29T06:24:31.387Z,137.40
2018-11-29T06:25:31.353Z,129.10
2018-11-29T06:26:31.316Z,139.10
2018-11-29T06:27:31.287Z,136.20
2018-11-29T06:28:31.249Z,138.40
2018-11-29T06:29:31.219Z,138.00
2018-11-29T06:30:31.181Z,138.30
2018-11-29T06:31:31.148Z,131.50
2018-11-29T06:32:31.112Z,138.10
2018-11-29T06:33:31.078Z,149.30
2018-11-29T06:34:31.043Z,135.10
2018-11-29T06:35:31.009Z,147.00
2018-11-29T06:36:30.975Z,146.40
2018-11-29T06:37:30.949Z,151.60
2018-11-29T06:38:30.907Z,158.20
2018-11-29T06:39:30.871Z,140.10
2018-11-29T06:40:30.838Z,149.40
2018-11-29T06:41:30.806Z,138.90
2018-11-29T06:42:30.772Z,150.20
2018-11-29T06:43:30.735Z,146.20
2018-11-29T06:44:30.703Z,157.70
2018-11-29T06:45:30.666Z,148.60
2018-11-29T06:46:30.633Z,148.90
2018-11-29T06:47:30.600Z,148.80
2018-11-29T06:48:30.565Z,150.20
2018-11-29T06:49:30.529Z,139.70
2018-11-29T06:50:30.494Z,147.50
2018-11-29T06:51:30.461Z,143.60
2018-11-29T06:52:30.426Z,145.30
2018-11-29T06:53:30.394Z,150.80
2018-11-29T06:54:30.358Z,147.30
2018-11-29T06:55:30.323Z,146.40
2018-11-29T06:56:30.289Z,147.30
2018-11-29T06:57:30.257Z,140.90
2018-11-29T06:58:30.226Z,146.30
2018-11-29T06:59:30.188Z,146.80
2018-11-29T07:00:30.152Z,140.30
2018-11-29T07:01:30.118Z,149.30
2018-11-29T07:02:30.085Z,140.30
2018-11-29T07:03:30.055Z,148.70
2018-11-29T07:04:30.016Z,146.70
2018-11-29T07:05:29.986Z,149.60
2018-11-29T07:06:29.949Z,145.70
2018-11-29T07:07:29.912Z,145.50
2018-11-29T07:08:29.879Z,148.90
2018-11-29T07:09:29.849Z,143.30
2018-11-29T07:10:29.825Z,137.10
2018-11-29T07:11:29.778Z,141.50
2018-11-29T07:12:29.744Z,152.40
2018-11-29T07:13:29.708Z,142.30
2018-11-29T07:14:29.672Z,140.40
2018-11-29T07:15:29.641Z,142.20
2018-11-29T07:16:29.605Z,142.00
2018-11-29T07:17:29.573Z,137.50
2018-11-29T07:18:29.537Z,149.80
2018-11-29T07:19:29.504Z,127.30
2018-11-29T07:20:29.469Z,141.30
2018-11-29T07:21:29.433Z,120.90
2018-11-29T07:22:29.399Z,130.10
2018-11-29T07:23:29.366Z,141.50
2018-11-29T07:24:29.332Z,122.50
2018-11-29T07:25:29.301Z,127.10
2018-11-29T07:26:29.264Z,138.80
2018-11-29T07:27:29.228Z,126.00
2018-11-29T07:28:29.196Z,136.30
2018-11-29T07:29:29.163Z,133.20
2018-11-29T07:30:29.134Z,119.60
2018-11-29T07:31:29.095Z,125.10
2018-11-29T07:32:29.061Z,113.80
2018-11-29T07:33:29.026Z,114.40
2018-11-29T07:34:28.997Z,124.00
2018-11-29T07:35:28.958Z,125.10
2018-11-29T07:36:28.925Z,127.40
2018-11-29T07:37:28.888Z,125.00
2018-11-29T07:38:28.857Z,124.80
2018-11-29T07:39:28.824Z,118.70
2018-11-29T07:40:28.789Z,122.90
2018-11-29T07:41:28.765Z,121.50
2018-11-29T07:42:28.720Z,119.20
2018-11-29T07:43:28.688Z,116.20
2018-11-29T07:44:28.664Z,120.40
2018-11-29T07:45:28.619Z,121.10
2018-11-29T07:46:28.585Z,118.80
2018-11-29T07:47:28.550Z,116.30
2018-11-29T07:48:28.531Z,124.00
2018-11-29T07:49:28.484Z,122.70
2018-11-29T07:50:28.450Z,123.40
2018-11-29T07:51:28.419Z,114.40
2018-11-29T07:52:28.381Z,115.30
2018-11-29T07:53:28.346Z,121.40
2018-11-29T07:54:28.313Z,119.90
2018-11-29T07:55:28.279Z,117.20
2018-11-29T07:56:28.244Z,118.60
2018-11-29T07:57:28.212Z,112.80
2018-11-29T07:58:28.178Z,127.50
2018-11-29T07:59:28.143Z,115.50
2018-11-29T08:00:28.115Z,108.80
2018-11-29T08:01:28.077Z,115.40
2018-11-29T08:02:28.042Z,122.80
2018-11-29T08:03:28.008Z,115.70
2018-11-29T08:04:27.985Z,126.40
2018-11-29T08:05:27.941Z,115.80
2018-11-29T08:06:27.912Z,112.80
2018-11-29T08:07:27.872Z,116.50
2018-11-29T08:08:27.838Z,114.50
2018-11-29T08:09:27.806Z,122.10
2018-11-29T08:10:27.772Z,119.00
2018-11-29T08:11:27.737Z,128.90
2018-11-29T08:12:27.705Z,126.20
2018-11-29T08:13:27.673Z,116.90
2018-11-29T08:14:27.635Z,103.80
2018-11-29T08:15:27.603Z,112.10
2018-11-29T08:16:27.568Z,108.10
2018-11-29T08:17:27.536Z,121.20
2018-11-29T08:18:27.504Z,118.90
2018-11-29T08:19:27.468Z,118.20
2018-11-29T08:20:27.434Z,121.30
2018-11-29T08:21:27.399Z,127.60
2018-11-29T08:22:27.365Z,124.80
2018-11-29T08:23:27.337Z,121.40
2018-11-29T08:24:27.297Z,112.60
2018-11-29T08:25:27.265Z,122.20
2018-11-29T08:26:27.231Z,122.50
2018-11-29T08:27:27.197Z,127.10
2018-11-29T08:28:27.165Z,117.50
2018-11-29T08:29:27.135Z,128.40
2018-11-29T08:30:27.096Z,120.80
2018-11-29T08:31:27.069Z,116.20
2018-11-29T08:32:27.027Z,115.10
2018-11-29T08:33:26.998Z,124.80
2018-11-29T08:34:26.960Z,114.80
2018-11-29T08:35:26.933Z,113.00
2018-11-29T08:36:26.894Z,115.50
2018-11-29T08:37:26.863Z,110.20
2018-11-29T08:38:26.833Z,114.70
2018-11-29T08:39:26.792Z,108.20
2018-11-29T08:40:26.760Z,113.80
2018-11-29T08:41:26.725Z,114.60
2018-11-29T08:42:26.743Z,113.50
2018-11-29T08:43:26.878Z,113.10
2018-11-29T08:44:26.631Z,108.00
2018-11-29T08:45:26.595Z,110.10
2018-11-29T08:46:26.557Z,114.60
2018-11-29T08:47:26.533Z,107.40
2018-11-29T08:48:26.489Z,116.00
2018-11-29T08:49:26.460Z,110.20
2018-11-29T08:50:26.424Z,106.80
2018-11-29T08:51:26.390Z,117.90
2018-11-29T08:52:26.364Z,102.30
2018-11-29T08:53:26.323Z,100.00
2018-11-29T08:54:26.288Z,107.60
2018-11-29T08:55:26.256Z,105.20
2018-11-29T08:56:26.222Z,105.10
2018-11-29T08:57:26.190Z,96.30
2018-11-29T08:58:26.156Z,108.40
2018-11-29T08:59:26.121Z,103.00
2018-11-29T09:00:26.094Z,105.20
2018-11-29T09:01:26.058Z,103.60
2018-11-29T09:02:26.021Z,112.90
2018-11-29T09:03:25.989Z,103.20
2018-11-29T09:04:25.956Z,109.70
2018-11-29T09:05:25.923Z,107.70
2018-11-29T09:06:25.893Z,103.20
2018-11-29T09:07:25.896Z,101.10
2018-11-29T09:08:25.821Z,102.30
2018-11-29T09:09:25.791Z,101.20
2018-11-29T09:10:31.436Z,109.00
2018-11-29T09:11:25.724Z,100.80
2018-11-29T09:12:25.691Z,98.20
2018-11-29T09:13:25.658Z,95.60
2018-11-29T09:14:25.625Z,107.10
2018-11-29T09:15:25.592Z,100.50
2018-11-29T09:16:25.556Z,105.80
2018-11-29T09:17:25.531Z,106.50
2018-11-29T09:18:25.490Z,106.40
2018-11-29T09:19:25.463Z,109.60
2018-11-29T09:20:25.426Z,111.50
2018-11-29T09:21:25.390Z,102.60
2018-11-29T09:22:25.357Z,106.40
2018-11-29T09:23:25.335Z,104.70
2018-11-29T09:24:25.291Z,92.70
2018-11-29T09:25:25.261Z,100.90
2018-11-29T09:26:25.224Z,103.20
2018-11-29T09:27:25.192Z,94.10
2018-11-29T09:28:25.160Z,95.40
2018-11-29T09:29:25.127Z,98.50
2018-11-29T09:30:25.092Z,92.00
2018-11-29T09:31:25.061Z,89.20
2018-11-29T09:32:25.027Z,106.00
2018-11-29T09:33:24.996Z,96.00
2018-11-29T09:34:24.962Z,94.20
2018-11-29T09:35:24.927Z,92.50
2018-11-29T09:36:24.901Z,97.50
2018-11-29T09:37:24.863Z,96.40
2018-11-29T09:38:24.830Z,83.50
2018-11-29T09:39:24.799Z,96.60
2018-11-29T09:40:24.769Z,89.10
2018-11-29T09:41:24.734Z,96.50
2018-11-29T09:42:24.705Z,92.00
2018-11-29T09:43:24.675Z,82.60
2018-11-29T09:44:24.635Z,85.50
2018-11-29T09:45:24.606Z,80.50
2018-11-29T09:46:24.569Z,80.60
2018-11-29T09:47:24.540Z,91.90
2018-11-29T09:48:24.508Z,91.30
2018-11-29T09:49:24.476Z,85.40
2018-11-29T09:50:24.440Z,81.40
2018-11-29T09:51:24.406Z,88.90
2018-11-29T09:52:24.375Z,89.70
2018-11-29T09:53:24.342Z,85.90
2018-11-29T09:54:24.309Z,82.90
2018-11-29T09:55:24.276Z,84.10
2018-11-29T09:56:24.244Z,85.40
2018-11-29T09:57:24.213Z,81.20
2018-11-29T09:58:24.180Z,85.10
2018-11-29T09:59:24.147Z,87.30
2018-11-29T10:00:27.697Z,84.70
2018-11-29T10:01:24.082Z,76.40
2018-11-29T10:02:24.051Z,81.40
2018-11-29T10:03:24.017Z,70.40
2018-11-29T10:04:23.987Z,78.80
2018-11-29T10:05:23.953Z,79.80
2018-11-29T10:06:23.930Z,82.60
2018-11-29T10:07:23.895Z,80.80
2018-11-29T10:08:26.222Z,77.40
2018-11-29T10:09:23.903Z,76.00
2018-11-29T10:10:23.788Z,91.20
2018-11-29T10:11:24.120Z,79.60
2018-11-29T10:12:23.726Z,79.30
2018-11-29T10:13:23.693Z,93.00
2018-11-29T10:14:23.673Z,81.90
2018-11-29T10:15:23.628Z,85.70
2018-11-29T10:16:23.595Z,87.80
2018-11-29T10:17:23.563Z,86.00
2018-11-29T10:18:23.530Z,89.70
2018-11-29T10:19:23.497Z,83.70
2018-11-29T10:20:23.469Z,90.40
2018-11-29T10:21:23.432Z,83.80
2018-11-29T10:22:23.399Z,87.40
2018-11-29T10:23:23.367Z,87.20
2018-11-29T10:24:23.334Z,92.00
2018-11-29T10:25:23.302Z,87.80
2018-11-29T10:26:23.269Z,92.90
2018-11-29T10:27:23.237Z,100.40
2018-11-29T10:28:23.204Z,87.70
2018-11-29T10:29:23.175Z,95.20
2018-11-29T10:30:23.162Z,88.50
2018-11-29T10:31:23.122Z,83.90
2018-11-29T10:32:23.073Z,94.80
2018-11-29T10:33:23.042Z,87.70
2018-11-29T10:34:23.009Z,93.10
2018-11-29T10:35:22.973Z,92.40
2018-11-29T10:36:22.942Z,97.20
2018-11-29T10:37:22.909Z,91.90
2018-11-29T10:38:22.879Z,94.50
2018-11-29T10:39:22.846Z,94.20
2018-11-29T10:40:22.998Z,99.40
2018-11-29T10:41:22.782Z,94.70
2018-11-29T10:42:22.746Z,89.80
2018-11-29T10:43:22.738Z,86.90
2018-11-29T10:44:22.701Z,87.80
2018-11-29T10:45:22.648Z,89.90
2018-11-29T10:46:22.618Z,89.50
2018-11-29T10:47:22.584Z,86.90
2018-11-29T10:48:22.563Z,85.30
2018-11-29T10:49:22.518Z,97.10
2018-11-29T10:50:22.487Z,95.20
2018-11-29T10:51:23.206Z,84.40
2018-11-29T10:52:22.421Z,85.70
2018-11-29T10:53:22.389Z,98.60
2018-11-29T10:54:22.355Z,90.20
2018-11-29T10:55:22.327Z,92.60
2018-11-29T10:56:22.355Z,91.50
2018-11-29T10:57:22.265Z,91.50
2018-11-29T10:58:22.274Z,95.00
2018-11-29T10:59:22.194Z,88.30
2018-11-29T11:00:22.162Z,90.90
2018-11-29T11:01:22.128Z,97.50
2018-11-29T11:02:22.095Z,84.90
2018-11-29T11:03:22.063Z,100.00
2018-11-29T11:04:22.032Z,95.90
2018-11-29T11:05:22.044Z,91.40
2018-11-29T11:06:21.966Z,95.10
2018-11-29T11:07:21.933Z,99.20
2018-11-29T11:08:21.902Z,96.10
2018-11-29T11:09:21.868Z,90.50
2018-11-29T11:10:21.836Z,88.50
2018-11-29T11:11:21.804Z,92.40
2018-11-29T11:12:21.772Z,90.00
2018-11-29T11:13:21.740Z,88.60
2018-11-29T11:14:21.707Z,95.40
2018-11-29T11:15:21.682Z,103.00
2018-11-29T11:16:21.643Z,96.70
2018-11-29T11:17:21.610Z,94.20
2018-11-29T11:18:21.576Z,83.00
2018-11-29T11:19:21.549Z,94.40
2018-11-29T11:20:21.513Z,90.00
2018-11-29T11:21:21.480Z,91.10
2018-11-29T11:22:21.447Z,93.50
2018-11-29T11:23:21.415Z,90.80
2018-11-29T11:24:21.384Z,85.30
2018-11-29T11:25:21.352Z,87.30
2018-11-29T11:26:21.322Z,95.10
2018-11-29T11:27:21.286Z,93.20
2018-11-29T11:28:21.255Z,93.00
2018-11-29T11:29:21.224Z,92.40
2018-11-29T11:30:21.280Z,86.00
2018-11-29T11:31:21.224Z,96.50
2018-11-29T11:32:21.125Z,88.50
2018-11-29T11:33:21.099Z,95.80
2018-11-29T11:34:21.082Z,95.50
2018-11-29T11:35:21.029Z,94.10
2018-11-29T11:36:21.015Z,90.50
2018-11-29T11:37:20.965Z,86.80
2018-11-29T11:38:20.932Z,95.10
2018-11-29T11:39:20.903Z,96.20
2018-11-29T11:40:20.870Z,91.70
2018-11-29T11:41:20.841Z,86.10
2018-11-29T11:42:20.806Z,92.70
2018-11-29T11:43:20.777Z,85.00
2018-11-29T11:44:20.741Z,94.40
2018-11-29T11:45:20.712Z,89.20
2018-11-29T11:46:20.676Z,83.40
2018-11-29T11:47:20.649Z,93.20
2018-11-29T11:48:20.613Z,97.90
2018-11-29T11:49:20.581Z,92.90
2018-11-29T11:50:20.550Z,90.90
2018-11-29T11:51:20.518Z,100.70
2018-11-29T11:52:20.489Z,88.20
2018-11-29T11:53:20.455Z,92.70
2018-11-29T11:54:20.419Z,92.00
2018-11-29T11:55:20.388Z,95.90
2018-11-29T11:56:20.355Z,98.80
2018-11-29T11:57:20.323Z,93.80
2018-11-29T11:58:20.291Z,92.00
2018-11-29T11:59:20.264Z,94.40
2018-11-29T12:00:20.230Z,100.70
2018-11-29T12:01:20.206Z,95.00
2018-11-29T12:02:20.161Z,104.30
2018-11-29T12:03:20.130Z,105.80
2018-11-29T12:04:20.099Z,102.70
2018-11-29T12:05:20.067Z,102.70
2018-11-29T12:06:20.032Z,107.20
2018-11-29T12:07:20.011Z,102.70
2018-11-29T12:08:19.968Z,101.40
2018-11-29T12:09:19.934Z,100.80
2018-11-29T12:10:19.901Z,100.90
2018-11-29T12:11:19.871Z,108.60
2018-11-29T12:12:19.838Z,111.30
2018-11-29T12:13:19.823Z,98.30
2018-11-29T12:14:19.772Z,106.10
2018-11-29T12:15:19.739Z,106.60
2018-11-29T12:16:19.710Z,104.60
2018-11-29T12:17:19.674Z,107.30
2018-11-29T12:18:19.641Z,97.70
2018-11-29T12:19:19.610Z,102.60
2018-11-29T12:20:19.584Z,109.10
2018-11-29T12:21:19.547Z,106.80
2018-11-29T12:22:19.512Z,105.40
2018-11-29T12:23:19.481Z,107.60
2018-11-29T12:24:19.448Z,108.80
2018-11-29T12:25:19.415Z,110.30
2018-11-29T12:26:19.385Z,102.60
2018-11-29T12:27:19.354Z,103.20
2018-11-29T12:28:19.318Z,112.90
2018-11-29T12:29:19.290Z,110.60
2018-11-29T12:30:19.251Z,106.50
2018-11-29T12:31:19.221Z,110.80
2018-11-29T12:32:19.187Z,127.90
2018-11-29T12:33:19.157Z,114.30
2018-11-29T12:34:19.123Z,110.20
2018-11-29T12:35:19.109Z,119.00
2018-11-29T12:36:19.062Z,117.70
2018-11-29T12:37:19.026Z,115.90
2018-11-29T12:38:18.998Z,109.70
2018-11-29T12:39:18.961Z,111.60
2018-11-29T12:40:18.928Z,111.10
2018-11-29T12:41:18.897Z,114.70
2018-11-29T12:42:18.863Z,108.20
2018-11-29T12:43:18.830Z,114.20